DAAGDABB

Guest
Details From DAAG - Alger Houari Boumediene
To DABB - Annaba
Flight Number -
Tags Generated
Created
Modified
Stats Distance 223 nm / 413 km
Max Altitude 0 ft / 0 m
Waypoints 3
Social Downloads 5
Likes 0
Share VATSIM

Download

Looking for another format? Having issues loading an existing format? Contact us
Advertisement - Login to hide

Notes

Generated

Route

DAAG ANB DABB

ID Type Via Altitude Latitude Longitude Leg Dist Tot Dist Heading (true) Name
O DAAG APT - 0 ft / 0 m 36.69213˚ 3.17083˚ - 0 nm - -
ANB NDB - 0 ft / 0 m 36.81806˚ 7.80250˚ 222 nm 222 nm 87° / 89° ANNABA NDB
O DABB APT - 0 ft / 0 m 36.82061˚ 7.80675˚ 0 nm 223 nm 53° / 53° -

Altitude Profile

Advertisement - Login to hide

Weather


0- 5 10 15 20 25 30 35+ Temperature / ° C

Clouds and Precipitation
Forecast for 2017-12-17 06:00 UTC. Updated an hour ago

Ground ~20,000 ft ~40,000 ft Winds

DAAG

Details ICAO DAAG (ALG)
Name Alger Houari Boumediene
Region Algeria
Timezone Africa/Algiers (UTC+1.0)
Stats Elevation 82 ft / 25 m (AMSL)
Location 36.697521° 3.213079°
Runways 2
Magnetic Variation 1.058° E

METAR

DAAG 170430Z 26006KT 9999 FEW020 SCT073 08/07 Q1024

Decode

TAF

TAF DAAG 162300Z 1700/1724 VRB02KT 9999 FEW020 SCT036 PROB40 TEMPO 1700/1708 5000 -RA SCT020TCU FEW023CB BECMG 1708/1711 04012KT

Decode

Departure Runways

ID Width Length Bearing (true) Bearing (mag) Surface Threshold Offset Overrun Length
05 197 ft / 60 m 11,459 ft / 3,493 m 52.87° 51.81° Asphalt 0 ft / 0 m 0 ft / 0 m
09 148 ft / 45 m 11,442 ft / 3,487 m 91.75° 90.69° Asphalt 0 ft / 0 m 1,017 ft / 310 m
23 197 ft / 60 m 11,459 ft / 3,493 m 232.89° 231.83° Asphalt 0 ft / 0 m 0 ft / 0 m
27 148 ft / 45 m 11,442 ft / 3,487 m 271.78° 270.72° Asphalt 0 ft / 0 m 0 ft / 0 m

DABB

Details ICAO DABB (AAE)
Name ANNABA
Region Algeria
Timezone Africa/Algiers (UTC+1.0)
Stats Elevation 16 ft / 5 m (AMSL)
Location 36.829326° 7.813746°
Runways 2
Magnetic Variation 1.977° E

METAR

DABB 170430Z 25003KT 9999 FEW023 BKN033 08/05 Q1020

Decode

TAF

TAF DABB 162300Z 1700/1724 30014KT 9999 FEW020CB BKN033 TEMPO 1700/1708 30015G25KT 5000 -RA PROB30 TEMPO 1718/1724 5000 -RA

Decode

Destination Runways

ID Width Length Bearing (true) Bearing (mag) Surface Threshold Offset Overrun Length
01 148 ft / 45 m 9,842 ft / 3,000 m 6.89° 4.91° Asphalt 329 ft / 100 m 60 ft / 18 m
05 148 ft / 45 m 7,468 ft / 2,276 m 51.66° 49.68° Asphalt 0 ft / 0 m 135 ft / 41 m
19 148 ft / 45 m 9,842 ft / 3,000 m 186.89° 184.91° Asphalt 0 ft / 0 m 65 ft / 20 m
23 148 ft / 45 m 7,468 ft / 2,276 m 231.68° 229.70° Asphalt 0 ft / 0 m 50 ft / 15 m

Approach Navaids

Runway Type Ident Frequency Range Bearing (true) Bearing (mag) Slope Elevation
19 Localiser AN 109.70 MHz 18 nm / 33 km 185.70° 183.72° - 16 ft / 5 m (AMSL)
19 Glidescope AN 109.70 MHz 10 nm / 19 km 186.89° 184.91° 3.00° 16 ft / 5 m (AMSL)

Popular Alternatives